Ashton, West Virginia
Current Conditions -  °F | °C
As of 9:15 AM on Thursday 29 Jan 2015 (Local Time) from K3I2 Reporting Station
Unknown Precip Unknown Precip  
Wind Chill: 34°   Ceiling: 4800
Heat Index: 34°   Visibility: 10mi
Dew Point: 28°   Wind: 0mph
Humidity: 81%   Direction: NA
Pressure: 29.99"   Gusts: NA
Location:  38.62°N, 82.16°W
Report Text: K3I2 291415Z AUTO 00000KT 10SM UP BKN048 BKN055 OVC065 01/M02 A2999 RMK AO2
Loading
Personal Weather Stations






























Interactive Weather Map New forecast layout! Learn more

10-Day Weather Forecast

Advertisements
Track Severe Weather on mobile